createdAt,value
2017-11-23T00:01:16.885Z,5.40
2017-11-23T00:03:44.513Z,5.40
2017-11-23T00:06:12.298Z,5.40
2017-11-23T00:08:39.930Z,5.40
2017-11-23T00:11:08.063Z,5.50
2017-11-23T00:13:35.614Z,5.50
2017-11-23T00:16:03.227Z,5.50
2017-11-23T00:18:30.950Z,5.50
2017-11-23T00:20:58.552Z,5.40
2017-11-23T00:23:26.878Z,5.40
2017-11-23T00:25:54.490Z,5.40
2017-11-23T00:28:22.821Z,5.40
2017-11-23T00:30:50.455Z,5.40
2017-11-23T00:33:18.019Z,5.40
2017-11-23T00:35:45.638Z,5.40
2017-11-23T00:38:13.205Z,5.50
2017-11-23T00:40:41.582Z,5.50
2017-11-23T00:43:09.142Z,5.50
2017-11-23T00:45:36.809Z,5.50
2017-11-23T00:48:04.369Z,5.50
2017-11-23T00:50:31.978Z,5.50
2017-11-23T00:52:59.558Z,5.50
2017-11-23T00:55:27.165Z,5.50
2017-11-23T00:57:54.747Z,5.50
2017-11-23T01:00:22.352Z,5.50
2017-11-23T01:02:50.698Z,5.50
2017-11-23T01:05:18.302Z,5.50
2017-11-23T01:07:46.639Z,5.50
2017-11-23T01:10:14.246Z,5.50
2017-11-23T01:12:41.815Z,5.50
2017-11-23T01:15:09.552Z,5.50
2017-11-23T01:17:37.183Z,5.50
2017-11-23T01:20:04.811Z,5.50
2017-11-23T01:22:37.094Z,5.50
2017-11-23T01:25:04.702Z,5.50
2017-11-23T01:27:33.088Z,5.50
2017-11-23T01:30:00.660Z,5.40
2017-11-23T01:32:28.402Z,5.50
2017-11-23T01:34:56.004Z,5.40
2017-11-23T01:37:23.632Z,5.40
2017-11-23T01:39:52.043Z,5.40
2017-11-23T01:42:19.654Z,5.40
2017-11-23T01:44:47.256Z,5.40
2017-11-23T01:47:14.889Z,5.40
2017-11-23T01:49:43.262Z,5.30
2017-11-23T01:52:10.863Z,5.30
2017-11-23T01:54:38.441Z,5.20
2017-11-23T01:57:06.078Z,5.20
2017-11-23T01:59:33.638Z,5.20
2017-11-23T02:02:01.243Z,5.10
2017-11-23T02:04:28.807Z,5.10
2017-11-23T02:06:56.421Z,5.10
2017-11-23T02:09:23.999Z,5.10
2017-11-23T02:11:51.583Z,5.10
2017-11-23T02:14:19.159Z,5.10
2017-11-23T02:16:46.763Z,5.10
2017-11-23T02:19:14.303Z,5.10
2017-11-23T02:21:41.895Z,5.10
2017-11-23T02:24:09.453Z,5.10
2017-11-23T02:26:37.331Z,5.10
2017-11-23T02:29:04.846Z,5.10
2017-11-23T02:31:32.403Z,5.10
2017-11-23T02:34:00.800Z,5.00
2017-11-23T02:36:28.338Z,5.00
2017-11-23T02:38:56.718Z,5.00
2017-11-23T02:41:24.274Z,5.00
2017-11-23T02:43:52.605Z,4.90
2017-11-23T02:46:20.212Z,5.00
2017-11-23T02:48:48.532Z,4.90
2017-11-23T02:51:16.139Z,4.80
2017-11-23T02:53:44.473Z,4.90
2017-11-23T02:56:12.142Z,4.90
2017-11-23T02:58:39.720Z,4.90
2017-11-23T03:01:07.287Z,4.90
2017-11-23T03:03:34.896Z,5.00
2017-11-23T03:06:02.445Z,5.00
2017-11-23T03:08:30.059Z,5.00
2017-11-23T03:10:57.779Z,5.10
2017-11-23T03:13:25.418Z,5.10
2017-11-23T03:15:52.997Z,5.20
2017-11-23T03:18:20.586Z,5.20
2017-11-23T03:20:48.191Z,5.20
2017-11-23T03:23:15.752Z,5.30
2017-11-23T03:25:44.367Z,5.30
2017-11-23T03:28:11.934Z,5.30
2017-11-23T03:30:39.544Z,5.30
2017-11-23T03:33:07.898Z,5.30
2017-11-23T03:35:35.590Z,5.30
2017-11-23T03:38:03.194Z,5.30
2017-11-23T03:40:30.750Z,5.30
2017-11-23T03:42:58.372Z,5.30
2017-11-23T03:45:25.979Z,5.30
2017-11-23T03:47:53.539Z,5.20
2017-11-23T03:50:21.147Z,5.20
2017-11-23T03:52:48.702Z,5.20
2017-11-23T03:55:16.316Z,5.20
2017-11-23T03:57:43.888Z,5.20
2017-11-23T04:00:11.451Z,5.20
2017-11-23T04:02:39.054Z,5.20
2017-11-23T04:05:06.620Z,5.20
2017-11-23T04:07:34.231Z,5.20
2017-11-23T04:10:01.800Z,5.20
2017-11-23T04:12:29.418Z,5.20
2017-11-23T04:14:56.994Z,5.20
2017-11-23T04:17:24.567Z,5.20
2017-11-23T04:19:52.185Z,5.20
2017-11-23T04:22:19.743Z,5.20
2017-11-23T04:24:47.409Z,5.20
2017-11-23T04:27:14.961Z,5.20
2017-11-23T04:29:43.336Z,5.20
2017-11-23T04:32:10.910Z,5.20
2017-11-23T04:34:38.671Z,5.20
2017-11-23T04:37:06.254Z,5.20
2017-11-23T04:39:34.097Z,5.20
2017-11-23T04:42:01.667Z,5.20
2017-11-23T04:44:29.270Z,5.20
2017-11-23T04:46:56.961Z,5.30
2017-11-23T04:49:24.543Z,5.30
2017-11-23T04:51:52.134Z,5.20
2017-11-23T04:54:19.723Z,5.20
2017-11-23T04:56:47.342Z,5.20
2017-11-23T04:59:14.931Z,5.20
2017-11-23T05:01:42.509Z,5.20
2017-11-23T05:04:10.120Z,5.20
2017-11-23T05:06:37.681Z,5.20
2017-11-23T05:09:05.270Z,5.20
2017-11-23T05:11:32.842Z,5.20
2017-11-23T05:14:00.518Z,5.20
2017-11-23T05:16:28.903Z,5.20
2017-11-23T05:18:56.475Z,5.20
2017-11-23T05:21:24.127Z,5.20
2017-11-23T05:23:52.566Z,5.20
2017-11-23T05:26:20.220Z,5.20
2017-11-23T05:28:47.790Z,5.20
2017-11-23T05:31:15.365Z,5.20
2017-11-23T05:33:42.967Z,5.20
2017-11-23T05:36:10.546Z,5.20
2017-11-23T05:38:38.362Z,5.20
2017-11-23T05:41:06.694Z,5.20
2017-11-23T05:43:34.303Z,5.20
2017-11-23T05:46:02.650Z,5.20
2017-11-23T05:48:30.253Z,5.20
2017-11-23T05:50:58.594Z,5.20
2017-11-23T05:53:26.212Z,5.20
2017-11-23T05:55:53.775Z,5.20
2017-11-23T05:58:21.379Z,5.20
2017-11-23T06:00:48.938Z,5.20
2017-11-23T06:03:16.536Z,5.20
2017-11-23T06:05:44.107Z,5.20
2017-11-23T06:08:11.773Z,5.10
2017-11-23T06:10:39.337Z,5.10
2017-11-23T06:13:07.152Z,5.10
2017-11-23T06:15:34.935Z,5.10
2017-11-23T06:18:03.326Z,5.10
2017-11-23T06:20:30.914Z,5.10
2017-11-23T06:22:58.506Z,5.10
2017-11-23T06:25:26.189Z,5.10
2017-11-23T06:27:54.826Z,5.10
2017-11-23T06:30:22.399Z,5.00
2017-11-23T06:32:50.092Z,5.10
2017-11-23T06:35:17.658Z,5.10
2017-11-23T06:37:46.025Z,5.10
2017-11-23T06:40:13.811Z,5.00
2017-11-23T06:42:42.204Z,5.10
2017-11-23T06:45:09.778Z,5.10
2017-11-23T06:47:37.410Z,5.10
2017-11-23T06:50:05.755Z,5.10
2017-11-23T06:52:33.349Z,5.10
2017-11-23T06:55:01.987Z,5.10
2017-11-23T06:57:29.560Z,5.10
2017-11-23T06:59:57.183Z,5.10
2017-11-23T07:02:24.766Z,5.10
2017-11-23T07:04:52.395Z,5.10
2017-11-23T07:07:19.963Z,5.10
2017-11-23T07:09:47.575Z,5.20
2017-11-23T07:12:15.910Z,5.20
2017-11-23T07:14:43.531Z,5.20
2017-11-23T07:17:11.857Z,5.30
2017-11-23T07:19:39.605Z,5.30
2017-11-23T07:22:07.194Z,5.40
2017-11-23T07:24:34.807Z,5.40
2017-11-23T07:27:02.376Z,5.50
2017-11-23T07:29:30.003Z,5.50
2017-11-23T07:31:57.573Z,5.60
2017-11-23T07:34:25.945Z,5.70
2017-11-23T07:36:53.509Z,5.70
2017-11-23T07:39:21.870Z,5.90
2017-11-23T07:41:49.575Z,5.90
2017-11-23T07:44:17.194Z,6.00
2017-11-23T07:46:44.767Z,6.00
2017-11-23T07:49:13.178Z,6.20
2017-11-23T07:51:40.750Z,6.20
2017-11-23T07:54:08.360Z,6.30
2017-11-23T07:56:36.691Z,6.50
2017-11-23T07:59:04.338Z,6.50
2017-11-23T08:01:31.928Z,6.60
2017-11-23T08:03:59.559Z,6.70
2017-11-23T08:06:27.223Z,6.80
2017-11-23T08:08:54.795Z,6.90
2017-11-23T08:11:22.405Z,6.90
2017-11-23T08:13:50.750Z,7.00
2017-11-23T08:16:18.362Z,7.00
2017-11-23T08:18:45.929Z,7.10
2017-11-23T08:21:13.554Z,7.20
2017-11-23T08:23:41.143Z,7.30
2017-11-23T08:26:08.916Z,7.40
2017-11-23T08:28:36.503Z,7.50
2017-11-23T08:31:04.124Z,7.50
2017-11-23T08:33:31.690Z,7.60
2017-11-23T08:35:59.328Z,7.60
2017-11-23T08:38:26.917Z,7.60
2017-11-23T08:40:54.539Z,7.60
2017-11-23T08:43:22.994Z,7.60
2017-11-23T08:45:51.410Z,7.70
2017-11-23T08:48:18.975Z,7.70
2017-11-23T08:50:46.602Z,7.70
2017-11-23T08:53:17.110Z,7.70
2017-11-23T08:55:44.745Z,7.70
2017-11-23T08:58:12.345Z,7.80
2017-11-23T09:00:39.974Z,7.80
2017-11-23T09:03:09.319Z,7.80
2017-11-23T09:05:44.223Z,7.90
2017-11-23T09:08:11.794Z,7.90
2017-11-23T09:10:39.413Z,8.00
2017-11-23T09:13:08.710Z,8.10
2017-11-23T09:15:36.302Z,8.10
2017-11-23T09:18:04.015Z,8.10
2017-11-23T09:20:32.404Z,8.30
2017-11-23T09:23:00.000Z,8.20
2017-11-23T09:25:27.853Z,8.30
2017-11-23T09:27:55.651Z,8.40
2017-11-23T09:30:23.262Z,8.40
2017-11-23T09:32:50.820Z,8.40
2017-11-23T09:35:18.460Z,8.50
2017-11-23T09:37:46.799Z,8.60
2017-11-23T09:40:14.371Z,8.60
2017-11-23T09:42:41.991Z,8.60
2017-11-23T09:45:09.546Z,8.70
2017-11-23T09:47:37.159Z,8.70
2017-11-23T09:50:04.841Z,8.70
2017-11-23T09:52:33.204Z,8.80
2017-11-23T09:55:01.555Z,8.80
2017-11-23T09:57:29.162Z,8.80
2017-11-23T09:59:56.739Z,8.90
2017-11-23T10:02:24.379Z,8.80
2017-11-23T10:04:52.719Z,8.90
2017-11-23T10:07:20.328Z,8.90
2017-11-23T10:09:48.727Z,9.00
2017-11-23T10:12:16.346Z,9.00
2017-11-23T10:14:44.855Z,9.10
2017-11-23T10:17:12.658Z,9.10
2017-11-23T10:19:40.256Z,9.10
2017-11-23T10:22:08.810Z,9.20
2017-11-23T10:24:36.401Z,9.10
2017-11-23T10:27:04.760Z,9.30
2017-11-23T10:29:32.338Z,9.20
2017-11-23T10:32:00.710Z,9.30
2017-11-23T10:34:28.346Z,9.30
2017-11-23T10:36:55.987Z,9.30
2017-11-23T10:39:23.563Z,9.30
2017-11-23T10:41:51.185Z,9.40
2017-11-23T10:44:18.766Z,9.40
2017-11-23T10:46:46.392Z,9.40
2017-11-23T10:49:14.727Z,9.40
2017-11-23T10:51:42.343Z,9.50
2017-11-23T10:54:09.926Z,9.50
2017-11-23T10:56:37.555Z,9.60
2017-11-23T10:59:05.144Z,9.60
2017-11-23T11:01:32.714Z,9.60
2017-11-23T11:04:00.523Z,9.70
2017-11-23T11:06:28.120Z,9.70
2017-11-23T11:08:55.723Z,9.70
2017-11-23T11:11:23.297Z,9.80
2017-11-23T11:13:50.905Z,9.80
2017-11-23T11:16:18.473Z,9.80
2017-11-23T11:18:46.109Z,9.80
2017-11-23T11:21:13.691Z,9.80
2017-11-23T11:23:41.383Z,9.80
2017-11-23T11:26:08.972Z,9.90
2017-11-23T11:28:37.335Z,9.90
2017-11-23T11:31:04.903Z,9.90
2017-11-23T11:33:33.401Z,10.00
2017-11-23T11:36:01.739Z,9.90
2017-11-23T11:38:29.391Z,9.90
2017-11-23T11:40:56.959Z,9.90
2017-11-23T11:43:24.641Z,10.00
2017-11-23T11:45:52.999Z,10.00
2017-11-23T11:48:20.642Z,10.00
2017-11-23T11:50:48.401Z,10.00
2017-11-23T11:53:15.995Z,10.00
2017-11-23T11:55:43.778Z,10.00
2017-11-23T11:58:12.423Z,10.00
2017-11-23T12:00:39.999Z,10.00
2017-11-23T12:03:07.663Z,10.00
2017-11-23T12:05:35.251Z,10.00
2017-11-23T12:08:03.659Z,10.10
2017-11-23T12:10:31.231Z,10.10
2017-11-23T12:12:58.910Z,10.10
2017-11-23T12:15:33.238Z,10.10
2017-11-23T12:18:12.475Z,10.10
2017-11-23T12:20:52.694Z,10.20
2017-11-23T12:23:32.019Z,10.20
2017-11-23T12:25:59.759Z,10.20
2017-11-23T12:28:39.836Z,10.10
2017-11-23T12:31:07.468Z,10.10
2017-11-23T12:33:35.242Z,10.10
2017-11-23T12:36:03.874Z,10.20
2017-11-23T12:38:31.446Z,10.10
2017-11-23T12:40:59.048Z,10.20
2017-11-23T12:43:27.146Z,10.20
2017-11-23T12:45:54.736Z,10.20
2017-11-23T12:48:22.369Z,10.20
2017-11-23T12:50:49.946Z,10.20
2017-11-23T12:53:17.722Z,10.20
2017-11-23T12:55:45.306Z,10.20
2017-11-23T12:58:12.904Z,10.30
2017-11-23T13:00:40.515Z,10.20
2017-11-23T13:03:08.125Z,10.30
2017-11-23T13:05:35.782Z,10.30
2017-11-23T13:08:03.394Z,10.30
2017-11-23T13:10:32.694Z,10.20
2017-11-23T13:13:00.311Z,10.20
2017-11-23T13:15:27.881Z,10.20
2017-11-23T13:17:55.495Z,10.20
2017-11-23T13:20:23.070Z,10.20
2017-11-23T13:22:50.707Z,10.20
2017-11-23T13:25:19.117Z,10.20
2017-11-23T13:27:46.797Z,10.10
2017-11-23T13:30:14.382Z,10.20
2017-11-23T13:32:41.947Z,10.20
2017-11-23T13:35:09.558Z,10.10
2017-11-23T13:37:37.173Z,10.10
2017-11-23T13:40:04.792Z,10.10
2017-11-23T13:42:32.351Z,10.10
2017-11-23T13:45:00.060Z,10.10
2017-11-23T13:47:27.634Z,10.10
2017-11-23T13:49:55.213Z,10.10
2017-11-23T13:52:23.579Z,10.10
2017-11-23T13:54:51.199Z,10.10
2017-11-23T13:57:18.813Z,10.10
2017-11-23T13:59:46.429Z,10.10
2017-11-23T14:02:14.084Z,10.10
2017-11-23T14:04:41.666Z,10.10
2017-11-23T14:07:09.243Z,10.10
2017-11-23T14:09:37.656Z,10.10
2017-11-23T14:12:05.240Z,10.10
2017-11-23T14:14:33.183Z,10.10
2017-11-23T14:17:00.846Z,10.00
2017-11-23T14:19:28.467Z,10.00
2017-11-23T14:21:56.221Z,10.00
2017-11-23T14:24:23.829Z,9.90
2017-11-23T14:26:51.408Z,9.80
2017-11-23T14:29:18.978Z,9.80
2017-11-23T14:31:46.590Z,9.80
2017-11-23T14:34:14.184Z,9.80
2017-11-23T14:36:42.296Z,9.80
2017-11-23T14:39:09.902Z,9.80
2017-11-23T14:41:37.502Z,9.80
2017-11-23T14:44:05.285Z,9.80
2017-11-23T14:46:32.885Z,9.80
2017-11-23T14:49:00.550Z,9.80
2017-11-23T14:51:28.144Z,9.80
2017-11-23T14:53:55.751Z,9.80
2017-11-23T14:56:23.358Z,9.80
2017-11-23T14:58:51.108Z,9.90
2017-11-23T15:01:18.737Z,9.90
2017-11-23T15:03:46.328Z,9.90
2017-11-23T15:06:13.950Z,9.90
2017-11-23T15:08:41.538Z,10.00
2017-11-23T15:11:09.163Z,10.00
2017-11-23T15:13:36.744Z,10.20
2017-11-23T15:16:04.385Z,10.20
2017-11-23T15:18:32.765Z,10.40
2017-11-23T15:21:00.629Z,10.30
2017-11-23T15:23:28.207Z,10.40
2017-11-23T15:25:55.782Z,10.40
2017-11-23T15:28:23.407Z,10.40
2017-11-23T15:30:51.180Z,10.50
2017-11-23T15:33:20.293Z,10.50
2017-11-23T15:35:48.078Z,10.50
2017-11-23T15:38:15.699Z,10.50
2017-11-23T15:40:43.269Z,10.50
2017-11-23T15:43:10.891Z,10.40
2017-11-23T15:45:38.470Z,10.40
2017-11-23T15:48:06.381Z,10.40
2017-11-23T15:50:33.983Z,10.30
2017-11-23T15:53:01.805Z,10.40
2017-11-23T15:55:29.375Z,10.40
2017-11-23T15:57:57.006Z,10.40
2017-11-23T16:00:24.600Z,10.40
2017-11-23T16:02:52.258Z,10.30
2017-11-23T16:05:19.881Z,10.30
2017-11-23T16:07:47.495Z,10.30
2017-11-23T16:10:15.079Z,10.30
2017-11-23T16:12:42.782Z,10.30
2017-11-23T16:15:10.364Z,10.20
2017-11-23T16:17:38.007Z,10.20
2017-11-23T16:20:05.784Z,10.20
2017-11-23T16:22:33.484Z,10.20
2017-11-23T16:25:01.198Z,10.20
2017-11-23T16:27:28.915Z,10.20
2017-11-23T16:29:56.501Z,10.20
2017-11-23T16:32:24.129Z,10.10
2017-11-23T16:34:51.706Z,10.20
2017-11-23T16:37:19.357Z,10.20
2017-11-23T16:39:46.957Z,10.10
2017-11-23T16:42:22.132Z,10.20
2017-11-23T16:44:55.287Z,10.20
2017-11-23T16:47:28.746Z,10.20
2017-11-23T16:50:10.824Z,10.20
2017-11-23T16:52:57.256Z,10.20
2017-11-23T16:55:31.139Z,10.20
2017-11-23T16:58:04.294Z,10.20
2017-11-23T17:00:37.514Z,10.20
2017-11-23T17:03:10.711Z,10.20
2017-11-23T17:05:43.834Z,10.20
2017-11-23T17:08:18.671Z,10.40
2017-11-23T17:10:51.745Z,10.40
2017-11-23T17:13:25.158Z,10.40
2017-11-23T17:15:58.388Z,10.30
2017-11-23T17:18:31.560Z,10.30
2017-11-23T17:20:59.148Z,10.30
2017-11-23T17:23:27.004Z,10.30
2017-11-23T17:25:54.586Z,10.30
2017-11-23T17:28:22.206Z,10.20
2017-11-23T17:30:49.790Z,10.20
2017-11-23T17:33:17.624Z,10.20
2017-11-23T17:35:45.210Z,10.20
2017-11-23T17:38:12.808Z,10.20
2017-11-23T17:40:40.499Z,10.20
2017-11-23T17:43:08.081Z,10.10
2017-11-23T17:45:35.737Z,10.10
2017-11-23T17:48:03.375Z,10.10
2017-11-23T17:50:31.122Z,10.10
2017-11-23T17:52:58.756Z,10.10
2017-11-23T17:55:26.358Z,10.10
2017-11-23T17:57:54.720Z,10.20
2017-11-23T18:00:22.347Z,10.10
2017-11-23T18:02:49.942Z,10.20
2017-11-23T18:05:18.366Z,10.10
2017-11-23T18:07:45.954Z,10.10
2017-11-23T18:10:13.606Z,10.10
2017-11-23T18:12:41.215Z,10.10
2017-11-23T18:15:09.600Z,10.10
2017-11-23T18:17:37.285Z,10.10
2017-11-23T18:20:04.931Z,10.10
2017-11-23T18:22:32.505Z,10.20
2017-11-23T18:25:02.884Z,10.20
2017-11-23T18:27:30.483Z,10.20
2017-11-23T18:29:58.141Z,10.20
2017-11-23T18:32:25.749Z,10.20
2017-11-23T18:34:53.380Z,10.20
2017-11-23T18:37:20.971Z,10.20
2017-11-23T18:39:48.605Z,10.10
2017-11-23T18:42:16.191Z,10.20
2017-11-23T18:44:43.819Z,10.10
2017-11-23T18:47:11.564Z,10.20
2017-11-23T18:49:39.161Z,10.20
2017-11-23T18:52:06.758Z,10.20
2017-11-23T18:54:34.398Z,10.20
2017-11-23T18:57:02.172Z,10.20
2017-11-23T18:59:29.769Z,10.20
2017-11-23T19:01:57.389Z,10.10
2017-11-23T19:04:24.978Z,10.10
2017-11-23T19:06:53.391Z,10.00
2017-11-23T19:09:20.990Z,10.00
2017-11-23T19:11:48.621Z,10.00
2017-11-23T19:14:16.223Z,10.00
2017-11-23T19:16:44.665Z,10.00
2017-11-23T19:19:12.250Z,10.00
2017-11-23T19:21:40.502Z,9.90
2017-11-23T19:24:08.455Z,10.00
2017-11-23T19:26:36.075Z,9.90
2017-11-23T19:29:03.660Z,9.90
2017-11-23T19:31:31.342Z,9.90
2017-11-23T19:33:58.937Z,9.90
2017-11-23T19:36:26.560Z,9.90
2017-11-23T19:38:54.135Z,9.80
2017-11-23T19:41:21.754Z,9.90
2017-11-23T19:43:49.351Z,9.80
2017-11-23T19:46:16.954Z,9.80
2017-11-23T19:48:44.536Z,9.80
2017-11-23T19:51:12.167Z,9.80
2017-11-23T19:53:39.739Z,9.80
2017-11-23T19:56:07.605Z,9.80
2017-11-23T19:58:35.180Z,9.90
2017-11-23T20:01:03.549Z,9.90
2017-11-23T20:03:31.108Z,9.90
2017-11-23T20:05:59.478Z,9.90
2017-11-23T20:08:29.560Z,9.90
2017-11-23T20:10:57.189Z,9.90
2017-11-23T20:13:24.782Z,9.90
2017-11-23T20:15:52.380Z,9.90
2017-11-23T20:18:20.002Z,9.90
2017-11-23T20:20:47.567Z,9.90
2017-11-23T20:23:15.190Z,9.90
2017-11-23T20:25:42.781Z,9.90
2017-11-23T20:28:10.385Z,9.90
2017-11-23T20:30:38.902Z,10.00
2017-11-23T20:33:06.528Z,10.00
2017-11-23T20:35:34.870Z,10.00
2017-11-23T20:38:02.486Z,10.00
2017-11-23T20:40:30.075Z,10.00
2017-11-23T20:42:57.712Z,10.00
2017-11-23T20:45:25.346Z,10.00
2017-11-23T20:47:52.976Z,10.00
2017-11-23T20:50:20.606Z,10.00
2017-11-23T20:52:48.451Z,10.00
2017-11-23T20:55:16.074Z,10.00
2017-11-23T20:57:43.763Z,10.00
2017-11-23T21:00:12.118Z,10.00
2017-11-23T21:02:39.729Z,9.90
2017-11-23T21:05:07.318Z,9.90
2017-11-23T21:07:35.133Z,9.90
2017-11-23T21:10:02.707Z,9.90
2017-11-23T21:12:30.319Z,9.90
2017-11-23T21:14:57.895Z,9.90
2017-11-23T21:17:26.383Z,9.90
2017-11-23T21:19:53.983Z,9.90
2017-11-23T21:22:21.603Z,9.90
2017-11-23T21:24:49.960Z,10.00
2017-11-23T21:27:17.685Z,10.00
2017-11-23T21:29:45.261Z,10.00
2017-11-23T21:32:13.013Z,10.00
2017-11-23T21:34:40.671Z,10.00
2017-11-23T21:37:08.364Z,10.00
2017-11-23T21:39:36.008Z,10.00
2017-11-23T21:42:03.579Z,10.00
2017-11-23T21:44:31.416Z,10.00
2017-11-23T21:46:59.006Z,10.00
2017-11-23T21:49:26.671Z,10.10
2017-11-23T21:51:54.300Z,10.10
2017-11-23T21:54:22.034Z,10.10
2017-11-23T21:56:50.379Z,10.20
2017-11-23T21:59:17.986Z,10.10
2017-11-23T22:01:45.772Z,10.20
2017-11-23T22:04:13.379Z,10.20
2017-11-23T22:06:41.715Z,10.30
2017-11-23T22:09:09.338Z,10.20
2017-11-23T22:11:36.903Z,10.20
2017-11-23T22:14:04.690Z,10.20
2017-11-23T22:16:32.258Z,10.10
2017-11-23T22:18:59.874Z,10.10
2017-11-23T22:21:28.208Z,10.00
2017-11-23T22:23:56.026Z,10.00
2017-11-23T22:26:23.613Z,10.00
2017-11-23T22:28:51.215Z,10.00
2017-11-23T22:31:18.790Z,10.00
2017-11-23T22:33:46.407Z,9.90
2017-11-23T22:36:13.974Z,9.90
2017-11-23T22:38:41.600Z,9.90
2017-11-23T22:41:09.243Z,9.90
2017-11-23T22:43:36.831Z,9.90
2017-11-23T22:46:04.455Z,9.80
2017-11-23T22:48:32.832Z,9.80
2017-11-23T22:51:01.379Z,9.80
2017-11-23T22:53:29.045Z,9.80
2017-11-23T22:55:56.629Z,9.80
2017-11-23T22:58:24.230Z,9.70
2017-11-23T23:00:51.806Z,9.80
2017-11-23T23:03:19.422Z,9.70
2017-11-23T23:05:47.816Z,9.70
2017-11-23T23:08:15.412Z,9.70
2017-11-23T23:10:43.665Z,9.70
2017-11-23T23:13:11.238Z,9.70
2017-11-23T23:15:38.870Z,9.70
2017-11-23T23:18:06.461Z,9.80
2017-11-23T23:20:34.035Z,9.80
2017-11-23T23:23:01.638Z,9.80
2017-11-23T23:25:29.207Z,9.90
2017-11-23T23:27:57.578Z,10.00
2017-11-23T23:30:25.170Z,10.00
2017-11-23T23:32:52.782Z,10.00
2017-11-23T23:35:20.359Z,10.00
2017-11-23T23:37:47.969Z,10.10
2017-11-23T23:40:15.552Z,10.10
2017-11-23T23:42:43.307Z,10.10
2017-11-23T23:45:10.894Z,10.20
2017-11-23T23:47:39.271Z,10.20
2017-11-23T23:50:07.609Z,10.20
2017-11-23T23:52:35.223Z,10.20
2017-11-23T23:55:02.802Z,10.30
2017-11-23T23:57:30.356Z,10.30
2017-11-23T23:59:57.958Z,10.30
